Flight Track Log - Related Links

Times and Time Zones

All times are in EDT time to prevent confusion due to time zone crossing. See the ASQ4976 flight status page for this flight to view local times or setup timezone preferences in your user account.

Time Position Orientation Groundspeed Altitude Reporting Facility
EDT Latitude Longitude Course Direction KTS MPH feet Rate Location/Type
Sat 07:42:39 AM 42.2036 -83.3556 178° South 164 189 1,300  Level Cleveland Center
Sat 07:43:46 AM 42.1453 -83.3528 178° South 225 259 4,000 2,504 Climbing Cleveland Center
Sat 07:44:46 AM 42.0856 -83.3222 159° South 256 295 6,600 2,479 Climbing Cleveland Center
Sat 07:46:33 AM 42.1211 -83.1475 75° East 293 337 10,900 2,084 Climbing Cleveland Center
Sat 07:47:33 AM 42.1608 -83.0369 64° Northeast 306 352 12,400 1,550 Climbing Cleveland Center
Sat 07:48:33 AM 42.2053 -82.9125 64° Northeast 336 387 14,000 1,600 Climbing Cleveland Center
Sat 07:49:33 AM 42.2517 -82.7825 64° Northeast 363 418 15,600 1,700 Climbing Cleveland Center
Sat 07:50:33 AM 42.2978 -82.6464 65° Northeast 378 435 17,400 1,450 Climbing Cleveland Center
Sat 07:51:33 AM 42.3461 -82.5103 64° Northeast 395 455 18,500 1,250 Climbing Cleveland Center
Sat 07:52:33 AM 42.3631 -82.3564 81° East 395 455 19,900 1,300 Climbing Cleveland Center
Sat 07:53:33 AM 42.3572 -82.1931 93° East 408 470 21,100 1,200 Climbing Cleveland Center
Sat 07:54:33 AM 42.3489 -82.0411 94° East 426 490 22,300 1,100 Climbing Cleveland Center
Sat 07:55:33 AM 42.3425 -81.8725 93° East 450 518 23,300 1,000 Climbing Cleveland Center
Sat 07:56:33 AM 42.3358 -81.7011 93° East 457 526 24,300 1,000 Climbing Cleveland Center
Sat 07:57:33 AM 42.3253 -81.5100 94° East 462 532 25,300 1,050 Climbing Cleveland Center
Sat 07:58:33 AM 42.3161 -81.3328 94° East 462 532 26,400 1,050 Climbing Cleveland Center
Sat 07:59:33 AM 42.3067 -81.1586 94° East 462 532 27,400 1,000 Climbing Cleveland Center
Sat 08:00:33 AM 42.2992 -80.9817 93° East 469 540 28,400 1,000 Climbing Cleveland Center
Sat 08:01:33 AM 42.2911 -80.8050 93° East 469 540 29,400 1,000 Climbing Cleveland Center
Sat 08:02:33 AM 42.2808 -80.6281 94° East 469 540 30,400 1,000 Climbing Cleveland Center
Sat 08:03:33 AM 42.2725 -80.4486 94° East 469 540 31,400 1,050 Climbing Cleveland Center
Sat 08:04:33 AM 42.2597 -80.2744 96° East 469 540 32,500 800 Climbing Cleveland Center
Sat 08:05:33 AM 42.2614 -80.1203 89° East 459 528 33,000 250 Climbing Cleveland Center
Sat 08:06:33 AM 42.2833 -79.9292 81° East 465 535 33,000  Level Cleveland Center
Sat 08:07:33 AM 42.3031 -79.7522 81° East 471 542 33,000  Level Cleveland Center
Sat 08:08:33 AM 42.3164 -79.5864 84° East 480 552 33,000  Level Cleveland Center
Sat 08:09:33 AM 42.3356 -79.4064 82° East 480 552 33,000  Level Cleveland Center
Sat 08:10:33 AM 42.3522 -79.2261 83° East 480 552 33,000  Level Cleveland Center
Sat 08:11:33 AM 42.3708 -79.0403 82° East 489 563 33,000  Level Cleveland Center
Sat 08:12:33 AM 42.3889 -78.8600 82° East 483 556 33,000  Level Cleveland Center
Sat 08:13:33 AM 42.4050 -78.6794 83° East 483 556 33,000  Level Cleveland Center
Sat 08:14:33 AM 42.4225 -78.4933 83° East 483 556 33,000  Level Cleveland Center
Sat 08:15:33 AM 42.4378 -78.3100 83° East 483 556 33,000  Level Cleveland Center
Sat 08:16:33 AM 42.4550 -78.1292 83° East 483 556 33,000  Level Cleveland Center
Sat 08:17:33 AM 42.4714 -77.9258 84° East 488 562 33,000  Level Cleveland Center
Sat 08:18:33 AM 42.4878 -77.7422 83° East 488 562 33,000  Level Cleveland Center
Sat 08:20:28 AM 42.5106 -77.4094 85° East 488 562 33,000  Level Boston Center
Sat 08:21:40 AM 42.5197 -77.2411 86° East 474 545 33,000 -409 Level Boston Center
Sat 08:22:40 AM 42.5297 -77.0531 86° East 435 501 32,100 -1,150 Descending Boston Center
Sat 08:23:40 AM 42.5481 -76.9078 80° East 410 472 30,700 -1,400 Descending Boston Center
Sat 08:24:40 AM 42.5639 -76.7650 81° East 393 452 29,300 -1,450 Descending Boston Center
Sat 08:25:40 AM 42.5758 -76.6192 84° East 387 445 27,800 -1,150 Descending Boston Center
Sat 08:26:40 AM 42.5872 -76.4733 84° East 387 445 27,000 -400 Descending Boston Center
Sat 08:27:40 AM 42.5967 -76.3244 85° East 387 445 27,000  Level Boston Center
Sat 08:28:40 AM 42.6100 -76.1728 83° East 392 451 27,000  Level Boston Center
Sat 08:29:40 AM 42.6192 -76.0153 85° East 404 465 27,000  Level Boston Center
Sat 08:30:40 AM 42.6303 -75.8578 84° East 410 472 27,000 -50 Level Boston Center
Sat 08:31:40 AM 42.6414 -75.6947 85° East 422 486 26,900  Descending Boston Center
Sat 08:32:40 AM 42.6500 -75.5342 86° East 422 486 27,000  Climbing Boston Center
Sat 08:33:40 AM 42.6606 -75.3708 85° East 422 486 26,900  Descending Boston Center
Sat 08:34:40 AM 42.6689 -75.2075 86° East 422 486 27,000  Climbing Boston Center
Sat 08:35:40 AM 42.6811 -75.0442 84° East 422 486 26,900  Descending Boston Center
Sat 08:36:40 AM 42.6892 -74.8722 86° East 435 501 27,000 50 Climbing Boston Center
Sat 08:37:40 AM 42.7011 -74.6947 85° East 452 520 27,000  Level Boston Center
Sat 08:38:40 AM 42.7083 -74.5281 87° East 452 520 27,000 -250 Level Boston Center
Sat 08:39:40 AM 42.7197 -74.3561 85° East 458 527 26,500 -500 Descending Boston Center
Sat 08:40:40 AM 42.7289 -74.1869 86° East 458 527 26,000 -250 Descending Boston Center
Sat 08:41:40 AM 42.7375 -74.0147 86° East 458 527 26,000  Level Boston Center
Sat 08:42:40 AM 42.7442 -73.8253 87° East 459 528 26,000  Level Boston Center
Sat 08:43:40 AM 42.7336 -73.6583 95° East 454 522 26,000 -150 Level Boston Center
Sat 08:44:40 AM 42.7164 -73.4942 98° East 448 516 25,700 -750 Descending Boston Center
Sat 08:45:40 AM 42.6992 -73.3300 98° East 448 516 24,500 -850 Descending Boston Center
Sat 08:46:40 AM 42.6814 -73.1658 98° East 442 509 24,000 -250 Descending Boston Center
Sat 08:47:40 AM 42.6636 -72.9992 98° East 442 509 24,000 -50 Level Boston Center
Sat 08:48:40 AM 42.6436 -72.8325 99° East 449 517 23,900 -50 Descending Boston Center
Sat 08:49:40 AM 42.6231 -72.6686 100° East 449 517 23,900 -700 Level Boston Center
Sat 08:50:40 AM 42.6131 -72.5133 95° East 430 495 22,500 -1,800 Descending Boston Center
Sat 08:51:40 AM 42.5839 -72.3497 104° East 430 495 20,300 -2,200 Descending Boston Center
Sat 08:52:40 AM 42.5647 -72.2033 100° East 411 473 18,100 -1,800 Descending Boston Center
Sat 08:53:40 AM 42.5436 -72.0539 101° East 403 464 16,700 -1,800 Descending Boston Center
Sat 08:54:40 AM 42.5306 -71.9075 97° East 397 457 14,500 -2,100 Descending Boston Center
Sat 08:55:40 AM 42.5192 -71.7642 96° East 391 450 12,500 -1,750 Descending Boston Center
Sat 08:56:40 AM 42.5058 -71.6261 97° East 379 436 11,000 -1,320 Descending Boston Center
Sat 08:57:20 AM 42.5000 -71.5500 96° East 324 373 10,300 -1,260 Descending KA90
Sat 08:58:20 AM 42.4833 -71.4333 101° East 286 329 8,900 -1,350 Descending KA90
Sat 08:59:20 AM 42.4833 -71.3333 90° East 280 322 7,600 -1,240 Descending KA90
Sat 09:00:21 AM 42.4833 -71.2333 90° East 268 308 6,400 -1,190 Descending KA90
Sat 09:01:21 AM 42.4667 -71.1333 103° East 261 300 5,200 -789 Descending KA90
Sat 09:02:15 AM 42.4167 -71.1500 194° South 255 293 4,900 -756 Descending KA90
Sat 09:03:20 AM 42.3500 -71.1833 200° South 254 292 3,700 -988 Descending KA90
Sat 09:03:40 AM 42.3289 -71.1989 209° Southwest 246 283 3,500 -525 Descending Boston Center
Sat 09:04:40 AM 42.2703 -71.1664 158° South 217 250 3,000 -772 Descending Boston Center
Sat 09:05:21 AM 42.2833 -71.1167 70° East 228 262 2,200 -1,010 Descending KA90
Sat 09:06:21 AM 42.3167 -71.0500 56° Northeast 164 189 1,300 -850 Descending KA90
Sat 09:07:21 AM 42.3333 -71.0167 56° Northeast 134 154 500 -800 Descending KA90
Sat 09:10:00 AM 42.3500 -71.0000 North  Level FlightAware Approximate

Login

Don't have an account? Register now (free) for customized features, flight alerts, and more!